Aviation Digital Data Service (ADDS)

Output produced by METARs form (0816 UTC 19 April 2019)
found at http://www.aviationweather.gov/metar/data/
 
METAR text: TAPA 190800Z 09011KT 9999 SCT018 25/20 Q1015 NOSIG
Conditions at: TAPA (COOLIDGE/ANTIGUA, AG) observed 0800 UTC 19 April 2019
Temperature: 25.0°C (77°F)
Dewpoint: 20.0°C (68°F) [RH = 74%]
Pressure (altimeter): 29.97 inches Hg (1015.0 mb)
Winds: from the E (90 degrees) at 13 MPH (11 knots; 5.7 m/s)
Visibility: 6 or more miles (10+ km)
Ceiling: at least 12,000 feet AGL
Clouds: scattered clouds at 1800 feet AGL
Weather: no significant weather observed at this time

METAR text: TAPA 190700Z 09012KT 9999 SCT018 25/19 Q1015 NOSIG
Conditions at: TAPA (COOLIDGE/ANTIGUA, AG) observed 0700 UTC 19 April 2019
Temperature: 25.0°C (77°F)
Dewpoint: 19.0°C (66°F) [RH = 69%]
Pressure (altimeter): 29.97 inches Hg (1015.0 mb)
Winds: from the E (90 degrees) at 14 MPH (12 knots; 6.2 m/s)
Visibility: 6 or more miles (10+ km)
Ceiling: at least 12,000 feet AGL
Clouds: scattered clouds at 1800 feet AGL
Weather: no significant weather observed at this time

METAR text: TAPA 190600Z 09010KT 9999 SCT018 SCT036 25/19 Q1015 NOSIG
Conditions at: TAPA (COOLIDGE/ANTIGUA, AG) observed 0600 UTC 19 April 2019
Temperature: 25.0°C (77°F)
Dewpoint: 19.0°C (66°F) [RH = 69%]
Pressure (altimeter): 29.97 inches Hg (1015.0 mb)
Winds: from the E (90 degrees) at 12 MPH (10 knots; 5.1 m/s)
Visibility: 6 or more miles (10+ km)
Ceiling: at least 12,000 feet AGL
Clouds: scattered clouds at 1800 feet AGL
scattered clouds at 3600 feet AGL
Weather: no significant weather observed at this time

METAR text: TAPA 190500Z 09012KT 9999 SCT018 BKN036 25/20 Q1016 NOSIG
Conditions at: TAPA (COOLIDGE/ANTIGUA, AG) observed 0500 UTC 19 April 2019
Temperature: 25.0°C (77°F)
Dewpoint: 20.0°C (68°F) [RH = 74%]
Pressure (altimeter): 30.00 inches Hg (1016.0 mb)
Winds: from the E (90 degrees) at 14 MPH (12 knots; 6.2 m/s)
Visibility: 6 or more miles (10+ km)
Ceiling: 3600 feet AGL
Clouds: scattered clouds at 1800 feet AGL
broken clouds at 3600 feet AGL
Weather: no significant weather observed at this time

METAR text: TAPA 190400Z 11005KT 9999 VCSH SCT018 BKN036 24/20 Q1017 NOSIG
Conditions at: TAPA (COOLIDGE/ANTIGUA, AG) observed 0400 UTC 19 April 2019
Temperature: 24.0°C (75°F)
Dewpoint: 20.0°C (68°F) [RH = 78%]
Pressure (altimeter): 30.03 inches Hg (1017.0 mb)
Winds: from the ESE (110 degrees) at 6 MPH (5 knots; 2.6 m/s)
Visibility: 6 or more miles (10+ km)
Ceiling: 3600 feet AGL
Clouds: scattered clouds at 1800 feet AGL
broken clouds at 3600 feet AGL
Weather: VCSH  (showers in vicinity)

METAR text: TAPA 190300Z 07009KT 9999 -SHRA BKN018 24/21 Q1017 NOSIG
Conditions at: TAPA (COOLIDGE/ANTIGUA, AG) observed 0300 UTC 19 April 2019
Temperature: 24.0°C (75°F)
Dewpoint: 21.0°C (70°F) [RH = 83%]
Pressure (altimeter): 30.03 inches Hg (1017.0 mb)
Winds: from the ENE (70 degrees) at 10 MPH (9 knots; 4.6 m/s)
Visibility: 6 or more miles (10+ km)
Ceiling: 1800 feet AGL
Clouds: broken clouds at 1800 feet AGL
Weather: -SHRA  (light rain showers)

METAR text: TAPA 190200Z 08009KT 9999 VCSH BKN018 25/20 Q1017 TEMPO SHRA
Conditions at: TAPA (COOLIDGE/ANTIGUA, AG) observed 0200 UTC 19 April 2019
Temperature: 25.0°C (77°F)
Dewpoint: 20.0°C (68°F) [RH = 74%]
Pressure (altimeter): 30.03 inches Hg (1017.0 mb)
Winds: from the E (80 degrees) at 10 MPH (9 knots; 4.6 m/s)
Visibility: 6 or more miles (10+ km)
Ceiling: 1800 feet AGL
Clouds: broken clouds at 1800 feet AGL
Weather: VCSH  (showers in vicinity)

METAR text: TAPA 190100Z 09009KT 9999 VCSH SCT018 25/20 Q1017 NOSIG
Conditions at: TAPA (COOLIDGE/ANTIGUA, AG) observed 0100 UTC 19 April 2019
Temperature: 25.0°C (77°F)
Dewpoint: 20.0°C (68°F) [RH = 74%]
Pressure (altimeter): 30.03 inches Hg (1017.0 mb)
Winds: from the E (90 degrees) at 10 MPH (9 knots; 4.6 m/s)
Visibility: 6 or more miles (10+ km)
Ceiling: at least 12,000 feet AGL
Clouds: scattered clouds at 1800 feet AGL
Weather: VCSH  (showers in vicinity)

METAR text: TAPA 190000Z 09007KT 9999 BKN018 25/20 Q1016 NOSIG
Conditions at: TAPA (COOLIDGE/ANTIGUA, AG) observed 0000 UTC 19 April 2019
Temperature: 25.0°C (77°F)
Dewpoint: 20.0°C (68°F) [RH = 74%]
Pressure (altimeter): 30.00 inches Hg (1016.0 mb)
Winds: from the E (90 degrees) at 8 MPH (7 knots; 3.6 m/s)
Visibility: 6 or more miles (10+ km)
Ceiling: 1800 feet AGL
Clouds: broken clouds at 1800 feet AGL
Weather: no significant weather observed at this time

METAR text: TAPA 182300Z 09008KT 9999 FEW018 25/20 Q1015 NOSIG
Conditions at: TAPA (COOLIDGE/ANTIGUA, AG) observed 2300 UTC 18 April 2019
Temperature: 25.0°C (77°F)
Dewpoint: 20.0°C (68°F) [RH = 74%]
Pressure (altimeter): 29.97 inches Hg (1015.0 mb)
Winds: from the E (90 degrees) at 9 MPH (8 knots; 4.1 m/s)
Visibility: 6 or more miles (10+ km)
Ceiling: at least 12,000 feet AGL
Clouds: few clouds at 1800 feet AGL
Weather: no significant weather observed at this time

METAR text: TAPA 182200Z 10009KT 9999 FEW020 26/19 Q1015 NOSIG
Conditions at: TAPA (COOLIDGE/ANTIGUA, AG) observed 2200 UTC 18 April 2019
Temperature: 26.0°C (79°F)
Dewpoint: 19.0°C (66°F) [RH = 65%]
Pressure (altimeter): 29.97 inches Hg (1015.0 mb)
Winds: from the E (100 degrees) at 10 MPH (9 knots; 4.6 m/s)
Visibility: 6 or more miles (10+ km)
Ceiling: at least 12,000 feet AGL
Clouds: few clouds at 2000 feet AGL
Weather: no significant weather observed at this time

METAR text: TAPA 182100Z 09010KT 9999 FEW020 27/19 Q1014 NOSIG
Conditions at: TAPA (COOLIDGE/ANTIGUA, AG) observed 2100 UTC 18 April 2019
Temperature: 27.0°C (81°F)
Dewpoint: 19.0°C (66°F) [RH = 62%]
Pressure (altimeter): 29.94 inches Hg (1014.0 mb)
Winds: from the E (90 degrees) at 12 MPH (10 knots; 5.1 m/s)
Visibility: 6 or more miles (10+ km)
Ceiling: at least 12,000 feet AGL
Clouds: few clouds at 2000 feet AGL
Weather: no significant weather observed at this time

METAR text: TAPA 182000Z 10011KT 9999 SCT019 27/19 Q1014 NOSIG
Conditions at: TAPA (COOLIDGE/ANTIGUA, AG) observed 2000 UTC 18 April 2019
Temperature: 27.0°C (81°F)
Dewpoint: 19.0°C (66°F) [RH = 62%]
Pressure (altimeter): 29.94 inches Hg (1014.0 mb)
Winds: from the E (100 degrees) at 13 MPH (11 knots; 5.7 m/s)
Visibility: 6 or more miles (10+ km)
Ceiling: at least 12,000 feet AGL
Clouds: scattered clouds at 1900 feet AGL
Weather: no significant weather observed at this time

METAR text: TAPA 181900Z 10012KT 9999 SCT020 28/20 Q1015 NOSIG
Conditions at: TAPA (COOLIDGE/ANTIGUA, AG) observed 1900 UTC 18 April 2019
Temperature: 28.0°C (82°F)
Dewpoint: 20.0°C (68°F) [RH = 62%]
Pressure (altimeter): 29.97 inches Hg (1015.0 mb)
Winds: from the E (100 degrees) at 14 MPH (12 knots; 6.2 m/s)
Visibility: 6 or more miles (10+ km)
Ceiling: at least 12,000 feet AGL
Clouds: scattered clouds at 2000 feet AGL
Weather: no significant weather observed at this time

METAR text: TAPA 181800Z 10012KT 9999 SCT019 28/20 Q1015 NOSIG
Conditions at: TAPA (COOLIDGE/ANTIGUA, AG) observed 1800 UTC 18 April 2019
Temperature: 28.0°C (82°F)
Dewpoint: 20.0°C (68°F) [RH = 62%]
Pressure (altimeter): 29.97 inches Hg (1015.0 mb)
Winds: from the E (100 degrees) at 14 MPH (12 knots; 6.2 m/s)
Visibility: 6 or more miles (10+ km)
Ceiling: at least 12,000 feet AGL
Clouds: scattered clouds at 1900 feet AGL
Weather: no significant weather observed at this time

METAR text: TAPA 181700Z 10012KT 9999 SCT020 28/19 Q1016 NOSIG
Conditions at: TAPA (COOLIDGE/ANTIGUA, AG) observed 1700 UTC 18 April 2019
Temperature: 28.0°C (82°F)
Dewpoint: 19.0°C (66°F) [RH = 58%]
Pressure (altimeter): 30.00 inches Hg (1016.0 mb)
Winds: from the E (100 degrees) at 14 MPH (12 knots; 6.2 m/s)
Visibility: 6 or more miles (10+ km)
Ceiling: at least 12,000 feet AGL
Clouds: scattered clouds at 2000 feet AGL
Weather: no significant weather observed at this time

METAR text: TAPA 181600Z 10012KT 9999 SCT024 28/20 Q1017 NOSIG
Conditions at: TAPA (COOLIDGE/ANTIGUA, AG) observed 1600 UTC 18 April 2019
Temperature: 28.0°C (82°F)
Dewpoint: 20.0°C (68°F) [RH = 62%]
Pressure (altimeter): 30.03 inches Hg (1017.0 mb)
Winds: from the E (100 degrees) at 14 MPH (12 knots; 6.2 m/s)
Visibility: 6 or more miles (10+ km)
Ceiling: at least 12,000 feet AGL
Clouds: scattered clouds at 2400 feet AGL
Weather: no significant weather observed at this time

METAR text: TAPA 181500Z 09011KT 9999 SCT024 28/19 Q1017 NOSIG
Conditions at: TAPA (COOLIDGE/ANTIGUA, AG) observed 1500 UTC 18 April 2019
Temperature: 28.0°C (82°F)
Dewpoint: 19.0°C (66°F) [RH = 58%]
Pressure (altimeter): 30.03 inches Hg (1017.0 mb)
Winds: from the E (90 degrees) at 13 MPH (11 knots; 5.7 m/s)
Visibility: 6 or more miles (10+ km)
Ceiling: at least 12,000 feet AGL
Clouds: scattered clouds at 2400 feet AGL
Weather: no significant weather observed at this time

METAR text: TAPA 181400Z 09012KT 9999 SCT022 28/19 Q1017 NOSIG
Conditions at: TAPA (COOLIDGE/ANTIGUA, AG) observed 1400 UTC 18 April 2019
Temperature: 28.0°C (82°F)
Dewpoint: 19.0°C (66°F) [RH = 58%]
Pressure (altimeter): 30.03 inches Hg (1017.0 mb)
Winds: from the E (90 degrees) at 14 MPH (12 knots; 6.2 m/s)
Visibility: 6 or more miles (10+ km)
Ceiling: at least 12,000 feet AGL
Clouds: scattered clouds at 2200 feet AGL
Weather: no significant weather observed at this time

METAR text: TAPA 181300Z 10010KT 9999 SCT024 28/19 Q1017 NOSIG
Conditions at: TAPA (COOLIDGE/ANTIGUA, AG) observed 1300 UTC 18 April 2019
Temperature: 28.0°C (82°F)
Dewpoint: 19.0°C (66°F) [RH = 58%]
Pressure (altimeter): 30.03 inches Hg (1017.0 mb)
Winds: from the E (100 degrees) at 12 MPH (10 knots; 5.1 m/s)
Visibility: 6 or more miles (10+ km)
Ceiling: at least 12,000 feet AGL
Clouds: scattered clouds at 2400 feet AGL
Weather: no significant weather observed at this time

METAR text: TAPA 181200Z 08011KT 9999 FEW024 27/18 Q1017 NOSIG
Conditions at: TAPA (COOLIDGE/ANTIGUA, AG) observed 1200 UTC 18 April 2019
Temperature: 27.0°C (81°F)
Dewpoint: 18.0°C (64°F) [RH = 58%]
Pressure (altimeter): 30.03 inches Hg (1017.0 mb)
Winds: from the E (80 degrees) at 13 MPH (11 knots; 5.7 m/s)
Visibility: 6 or more miles (10+ km)
Ceiling: at least 12,000 feet AGL
Clouds: few clouds at 2400 feet AGL
Weather: no significant weather observed at this time

METAR text: TAPA 181100Z 09009KT 9999 SCT022 25/20 Q1016 NOSIG
Conditions at: TAPA (COOLIDGE/ANTIGUA, AG) observed 1100 UTC 18 April 2019
Temperature: 25.0°C (77°F)
Dewpoint: 20.0°C (68°F) [RH = 74%]
Pressure (altimeter): 30.00 inches Hg (1016.0 mb)
Winds: from the E (90 degrees) at 10 MPH (9 knots; 4.6 m/s)
Visibility: 6 or more miles (10+ km)
Ceiling: at least 12,000 feet AGL
Clouds: scattered clouds at 2200 feet AGL
Weather: no significant weather observed at this time

METAR text: TAPA 181000Z 08010KT 9999 SCT018 25/20 Q1015 NOSIG
Conditions at: TAPA (COOLIDGE/ANTIGUA, AG) observed 1000 UTC 18 April 2019
Temperature: 25.0°C (77°F)
Dewpoint: 20.0°C (68°F) [RH = 74%]
Pressure (altimeter): 29.97 inches Hg (1015.0 mb)
Winds: from the E (80 degrees) at 12 MPH (10 knots; 5.1 m/s)
Visibility: 6 or more miles (10+ km)
Ceiling: at least 12,000 feet AGL
Clouds: scattered clouds at 1800 feet AGL
Weather: no significant weather observed at this time

METAR text: TAPA 180900Z 09009KT 9999 FEW018 25/19 Q1014 NOSIG
Conditions at: TAPA (COOLIDGE/ANTIGUA, AG) observed 0900 UTC 18 April 2019
Temperature: 25.0°C (77°F)
Dewpoint: 19.0°C (66°F) [RH = 69%]
Pressure (altimeter): 29.94 inches Hg (1014.0 mb)
Winds: from the E (90 degrees) at 10 MPH (9 knots; 4.6 m/s)
Visibility: 6 or more miles (10+ km)
Ceiling: at least 12,000 feet AGL
Clouds: few clouds at 1800 feet AGL
Weather: no significant weather observed at this time

METAR text: TAPA 180800Z 10009KT 9999 FEW018 25/19 Q1014 NOSIG
Conditions at: TAPA (COOLIDGE/ANTIGUA, AG) observed 0800 UTC 18 April 2019
Temperature: 25.0°C (77°F)
Dewpoint: 19.0°C (66°F) [RH = 69%]
Pressure (altimeter): 29.94 inches Hg (1014.0 mb)
Winds: from the E (100 degrees) at 10 MPH (9 knots; 4.6 m/s)
Visibility: 6 or more miles (10+ km)
Ceiling: at least 12,000 feet AGL
Clouds: few clouds at 1800 feet AGL
Weather: no significant weather observed at this time

METAR text: TAPA 180700Z 11007KT 9999 SCT018 25/20 Q1014 NOSIG
Conditions at: TAPA (COOLIDGE/ANTIGUA, AG) observed 0700 UTC 18 April 2019
Temperature: 25.0°C (77°F)
Dewpoint: 20.0°C (68°F) [RH = 74%]
Pressure (altimeter): 29.94 inches Hg (1014.0 mb)
Winds: from the ESE (110 degrees) at 8 MPH (7 knots; 3.6 m/s)
Visibility: 6 or more miles (10+ km)
Ceiling: at least 12,000 feet AGL
Clouds: scattered clouds at 1800 feet AGL
Weather: no significant weather observed at this time

METAR text: TAPA 180600Z 10008KT 9999 SCT018 25/20 Q1014 NOSIG
Conditions at: TAPA (COOLIDGE/ANTIGUA, AG) observed 0600 UTC 18 April 2019
Temperature: 25.0°C (77°F)
Dewpoint: 20.0°C (68°F) [RH = 74%]
Pressure (altimeter): 29.94 inches Hg (1014.0 mb)
Winds: from the E (100 degrees) at 9 MPH (8 knots; 4.1 m/s)
Visibility: 6 or more miles (10+ km)
Ceiling: at least 12,000 feet AGL
Clouds: scattered clouds at 1800 feet AGL
Weather: no significant weather observed at this time

METAR text: TAPA 180500Z 08010KT 9999 -SHRA SCT018 25/19 Q1015 NOSIG
Conditions at: TAPA (COOLIDGE/ANTIGUA, AG) observed 0500 UTC 18 April 2019
Temperature: 25.0°C (77°F)
Dewpoint: 19.0°C (66°F) [RH = 69%]
Pressure (altimeter): 29.97 inches Hg (1015.0 mb)
Winds: from the E (80 degrees) at 12 MPH (10 knots; 5.1 m/s)
Visibility: 6 or more miles (10+ km)
Ceiling: at least 12,000 feet AGL
Clouds: scattered clouds at 1800 feet AGL
Weather: -SHRA  (light rain showers)

METAR text: TAPA 180400Z 10010KT 9999 SCT018 25/20 Q1016 NOSIG
Conditions at: TAPA (COOLIDGE/ANTIGUA, AG) observed 0400 UTC 18 April 2019
Temperature: 25.0°C (77°F)
Dewpoint: 20.0°C (68°F) [RH = 74%]
Pressure (altimeter): 30.00 inches Hg (1016.0 mb)
Winds: from the E (100 degrees) at 12 MPH (10 knots; 5.1 m/s)
Visibility: 6 or more miles (10+ km)
Ceiling: at least 12,000 feet AGL
Clouds: scattered clouds at 1800 feet AGL
Weather: no significant weather observed at this time

METAR text: TAPA 180300Z 09011KT 9999 SCT018 25/19 Q1016 NOSIG
Conditions at: TAPA (COOLIDGE/ANTIGUA, AG) observed 0300 UTC 18 April 2019
Temperature: 25.0°C (77°F)
Dewpoint: 19.0°C (66°F) [RH = 69%]
Pressure (altimeter): 30.00 inches Hg (1016.0 mb)
Winds: from the E (90 degrees) at 13 MPH (11 knots; 5.7 m/s)
Visibility: 6 or more miles (10+ km)
Ceiling: at least 12,000 feet AGL
Clouds: scattered clouds at 1800 feet AGL
Weather: no significant weather observed at this time

METAR text: TAPA 180200Z 10010KT 9999 SCT018 25/20 Q1016 NOSIG
Conditions at: TAPA (COOLIDGE/ANTIGUA, AG) observed 0200 UTC 18 April 2019
Temperature: 25.0°C (77°F)
Dewpoint: 20.0°C (68°F) [RH = 74%]
Pressure (altimeter): 30.00 inches Hg (1016.0 mb)
Winds: from the E (100 degrees) at 12 MPH (10 knots; 5.1 m/s)
Visibility: 6 or more miles (10+ km)
Ceiling: at least 12,000 feet AGL
Clouds: scattered clouds at 1800 feet AGL
Weather: no significant weather observed at this time

METAR text: TAPA 180100Z 10010KT 9999 FEW018 25/20 Q1016 NOSIG
Conditions at: TAPA (COOLIDGE/ANTIGUA, AG) observed 0100 UTC 18 April 2019
Temperature: 25.0°C (77°F)
Dewpoint: 20.0°C (68°F) [RH = 74%]
Pressure (altimeter): 30.00 inches Hg (1016.0 mb)
Winds: from the E (100 degrees) at 12 MPH (10 knots; 5.1 m/s)
Visibility: 6 or more miles (10+ km)
Ceiling: at least 12,000 feet AGL
Clouds: few clouds at 1800 feet AGL
Weather: no significant weather observed at this time

METAR text: TAPA 180000Z 11012KT 9999 FEW018 26/19 Q1015 NOSIG
Conditions at: TAPA (COOLIDGE/ANTIGUA, AG) observed 0000 UTC 18 April 2019
Temperature: 26.0°C (79°F)
Dewpoint: 19.0°C (66°F) [RH = 65%]
Pressure (altimeter): 29.97 inches Hg (1015.0 mb)
Winds: from the ESE (110 degrees) at 14 MPH (12 knots; 6.2 m/s)
Visibility: 6 or more miles (10+ km)
Ceiling: at least 12,000 feet AGL
Clouds: few clouds at 1800 feet AGL
Weather: no significant weather observed at this time

METAR text: TAPA 172300Z 10011KT 9999 FEW018 26/19 Q1014 NOSIG
Conditions at: TAPA (COOLIDGE/ANTIGUA, AG) observed 2300 UTC 17 April 2019
Temperature: 26.0°C (79°F)
Dewpoint: 19.0°C (66°F) [RH = 65%]
Pressure (altimeter): 29.94 inches Hg (1014.0 mb)
Winds: from the E (100 degrees) at 13 MPH (11 knots; 5.7 m/s)
Visibility: 6 or more miles (10+ km)
Ceiling: at least 12,000 feet AGL
Clouds: few clouds at 1800 feet AGL
Weather: no significant weather observed at this time

METAR text: TAPA 172200Z 09011KT 9999FEW018 26/20 Q1014 NOSIG
Conditions at: TAPA (COOLIDGE/ANTIGUA, AG) observed 2200 UTC 17 April 2019
Temperature: 26.0°C (79°F)
Dewpoint: 20.0°C (68°F) [RH = 70%]
Pressure (altimeter): 29.94 inches Hg (1014.0 mb)
Winds: from the E (90 degrees) at 13 MPH (11 knots; 5.7 m/s)
Visibility: missing
Ceiling: at least 12,000 feet AGL
Clouds: few clouds at 1800 feet AGL
Weather: no significant weather observed at this time

METAR text: TAPA 172100Z 09011KT 9999 FEW018 BKN036 27/20 Q1014 NOSIG
Conditions at: TAPA (COOLIDGE/ANTIGUA, AG) observed 2100 UTC 17 April 2019
Temperature: 27.0°C (81°F)
Dewpoint: 20.0°C (68°F) [RH = 66%]
Pressure (altimeter): 29.94 inches Hg (1014.0 mb)
Winds: from the E (90 degrees) at 13 MPH (11 knots; 5.7 m/s)
Visibility: 6 or more miles (10+ km)
Ceiling: 3600 feet AGL
Clouds: few clouds at 1800 feet AGL
broken clouds at 3600 feet AGL
Weather: no significant weather observed at this time

Forecast for: TAPA (COOLIDGE/ANTIGUA, AG)
Text: TAF TAPA 190502Z 1906/2006 09011KT 9999 SCT022
Forecast period: 0600 UTC 19 April 2019 to 0600 UTC 20 April 2019
Forecast type: FROM: standard forecast or significant change
Winds: from the E (90 degrees) at 13 MPH (11 knots; 5.7 m/s)
Visibility: 6 or more miles 10+ km)
Ceiling: at least 12,000 feet AGL
Clouds: scattered clouds at 2200 feet AGL
Weather: no significant weather forecast for this period